Data for 09/22/2017

Time Sea-Level Adjusted Pressure Absolute Pressure Temperature Relative Humidity Dew Point   
(mb) (inHg) (mb) (inHg) (C) (F) (%) (C) (F)
00:05 1014 29.94 843 24.89 2.7 36.8 88 1 33.7
00:10 1014 29.94 843 24.89 2.6 36.7 88 0.9 33.5
00:15 1014 29.94 843 24.89 2.6 36.7 88 0.8 33.5
00:20 1014 29.94 843 24.89 2.5 36.6 88 0.8 33.5
00:25 1014 29.94 843 24.89 2.5 36.5 89 0.8 33.5
00:30 1014 29.94 843 24.89 2.5 36.6 89 1 33.7
00:35 1014 29.94 843 24.89 2.7 36.8 90 1.1 34.1
00:40 1014 29.94 843 24.89 2.8 37 90 1.3 34.3
00:45 1014 29.94 843 24.89 2.8 37 90 1.3 34.3
00:50 1014 29.94 843 24.89 2.7 36.9 89 1 33.8
00:55 1014 29.94 843 24.89 2.7 36.8 89 1 33.8
01:00 1014 29.94 843 24.89 2.6 36.7 89 0.9 33.6
01:05 1014 29.94 843 24.89 2.4 36.3 88 0.6 33.1
01:10 1014 29.94 844 24.92 2.1 35.8 88 0.4 32.7
01:15 1015 29.97 844 24.92 2 35.6 89 0.3 32.5
01:20 1015 29.97 844 24.92 1.7 35.1 89 0.1 32.2
01:25 1015 29.97 844 24.92 1.5 34.8 89 -0 31.9
01:30 1015 29.97 844 24.92 1.2 34.1 90 -0.2 31.6
01:35 1015 29.97 844 24.92 1.2 34.1 90 -0.2 31.6
01:40 1015 29.97 844 24.92 1.2 34.1 91 -0.2 31.6
01:45 1015 29.97 844 24.92 1.1 34 91 -0.2 31.6
01:50 1015 29.97 844 24.92 1.1 34 91 -0.3 31.5
01:55 1015 29.97 844 24.92 1 33.8 91 -0.3 31.4
02:00 1015 29.97 844 24.92 0.9 33.6 91 -0.5 31.2
02:05 1015 29.97 844 24.92 0.7 33.3 91 -0.6 31
02:10 1015 29.97 844 24.92 0.6 33.1 92 -0.6 30.9
02:15 1015 29.97 844 24.92 0.6 33 92 -0.6 30.9
02:20 1015 29.97 844 24.92 0.5 32.8 92 -0.7 30.8
02:25 1014 29.94 844 24.92 0.4 32.6 93 -0.7 30.7
02:30 1014 29.94 843 24.89 0.3 32.6 93 -0.7 30.7
02:35 1014 29.94 843 24.89 0.4 32.7 93 -0.6 30.9
02:40 1014 29.94 843 24.89 0.5 32.8 93 -0.5 31.1
02:45 1014 29.94 843 24.89 0.5 33 93 -0.5 31.1
02:50 1014 29.94 844 24.92 0.6 33.2 93 -0.4 31.3
02:55 1015 29.97 844 24.92 0.7 33.3 92 -0.4 31.3
03:00 1015 29.97 844 24.92 0.8 33.4 92 -0.4 31.3
03:05 1015 29.97 844 24.92 0.9 33.6 91 -0.5 31.2
03:10 1014 29.94 843 24.89 1.1 33.9 89 -0.5 31.1
03:15 1014 29.94 844 24.92 1.3 34.3 87 -0.6 30.9
03:20 1014 29.94 844 24.92 1.4 34.5 87 -0.6 30.9
03:25 1014 29.94 843 24.89 1.4 34.5 86 -0.7 30.7
03:30 1014 29.94 843 24.89 1.4 34.5 86 -0.7 30.7
03:35 1014 29.94 843 24.89 1.3 34.4 87 -0.6 30.9
03:40 1014 29.94 843 24.89 1.3 34.3 87 -0.6 30.8
03:45 1014 29.94 843 24.89 1.3 34.4 87 -0.7 30.8
03:50 1013 29.91 843 24.89 1.4 34.5 86 -0.7 30.8
03:55 1013 29.91 843 24.89 1.5 34.7 86 -0.7 30.8
04:00 1014 29.94 843 24.89 1.6 34.8 86 -0.5 31.1
04:05 1014 29.94 843 24.89 1.4 34.6 86 -0.6 30.8
04:10 1014 29.94 843 24.89 1.3 34.4 86 -0.7 30.7
04:15 1014 29.94 843 24.89 1.3 34.4 85 -1 30.2
04:20 1014 29.94 843 24.89 1.3 34.4 84 -1.1 30
04:25 1014 29.94 843 24.89 1.4 34.5 83 -1.1 30
04:30 1014 29.94 843 24.89 1.4 34.6 84 -1 30.2
04:35 1014 29.94 843 24.89 1.4 34.5 83 -1.1 30
04:40 1014 29.94 843 24.89 1.4 34.5 84 -1 30.1
04:45 1014 29.94 843 24.89 1.3 34.3 85 -0.9 30.3
04:50 1014 29.94 843 24.89 1.2 34.1 86 -1 30.2
04:55 1014 29.94 843 24.89 1.1 34 85 -1.1 30
05:00 1014 29.94 843 24.89 1.1 33.9 86 -1 30.2
05:05 1014 29.94 843 24.89 1 33.8 86 -1.1 30.1
05:10 1014 29.94 843 24.89 1 33.8 86 -1.1 30.1
05:15 1014 29.94 843 24.89 1.1 34 86 -1 30.2
05:20 1014 29.94 843 24.89 1.2 34.1 85 -1.1 30.1
05:25 1014 29.94 843 24.89 1.2 34.2 85 -1 30.1
05:30 1014 29.94 843 24.89 1.4 34.5 83 -1.1 29.9
05:35 1014 29.94 843 24.89 1.5 34.7 83 -1.1 29.9
05:40 1014 29.94 843 24.89 1.6 35 82 -1.1 30
05:45 1014 29.94 843 24.89 1.7 35.1 81 -1.2 29.8
05:50 1014 29.94 843 24.89 1.8 35.2 79 -1.5 29.4
05:55 1014 29.94 843 24.89 1.9 35.4 79 -1.4 29.4
06:00 1014 29.94 843 24.89 1.7 35.1 79 -1.4 29.4
06:05 1014 29.94 843 24.89 1.6 34.9 80 -1.4 29.4
06:10 1014 29.94 843 24.89 1.5 34.7 82 -1.3 29.6
06:15 1014 29.94 843 24.89 1.4 34.6 82 -1.3 29.6
06:20 1014 29.94 843 24.89 1.3 34.4 82 -1.5 29.4
06:25 1014 29.94 843 24.89 1.3 34.4 82 -1.4 29.4
06:30 1014 29.94 843 24.89 1.3 34.3 82 -1.5 29.3
06:35 1014 29.94 843 24.89 1.3 34.3 82 -1.5 29.4
06:40 1014 29.94 843 24.89 1.3 34.3 82 -1.5 29.4
06:45 1014 29.94 843 24.89 1.3 34.3 82 -1.5 29.3
06:50 1014 29.94 843 24.89 1.4 34.6 81 -1.5 29.3
06:55 1014 29.94 843 24.89 1.4 34.6 81 -1.6 29.2
07:00 1014 29.94 843 24.89 1.4 34.6 81 -1.5 29.3
07:05 1014 29.94 843 24.89 1.4 34.5 80 -1.6 29.1
07:10 1014 29.94 843 24.89 1.3 34.4 81 -1.6 29.1
07:15 1014 29.94 843 24.89 1.3 34.3 81 -1.7 29
07:20 1014 29.94 843 24.89 1.2 34.2 80 -1.8 28.8
07:25 1014 29.94 843 24.89 1.2 34.2 81 -1.7 29
07:30 1014 29.94 843 24.89 1.1 34 82 -1.7 29
07:35 1014 29.94 844 24.92 1.1 33.9 82 -1.7 28.9
07:40 1014 29.94 844 24.92 1.1 33.9 81 -1.8 28.8
07:45 1014 29.94 844 24.92 1.1 33.9 82 -1.7 28.9
07:50 1014 29.94 844 24.92 1.1 33.9 81 -1.8 28.8
07:55 1014 29.94 844 24.92 1.2 34.1 81 -1.8 28.8
08:00 1014 29.94 844 24.92 1.3 34.3 81 -1.7 29
08:05 1014 29.94 844 24.92 1.4 34.4 80 -1.7 28.9
08:10 1014 29.94 844 24.92 1.5 34.6 79 -1.7 28.9
08:15 1015 29.97 844 24.92 1.5 34.7 80 -1.6 29.2
08:20 1015 29.97 844 24.92 1.5 34.7 80 -1.7 29
08:25 1015 29.97 844 24.92 1.6 34.9 79 -1.6 29.1
08:30 1015 29.97 844 24.92 1.6 34.9 79 -1.7 28.9
08:35 1015 29.97 844 24.92 1.7 35.1 75 -2.2 28.1
08:40 1015 29.97 844 24.92 1.9 35.4 75 -2.1 28.2
08:45 1015 29.97 844 24.92 1.8 35.2 76 -2 28.3
08:50 1015 29.97 844 24.92 1.7 35.1 76 -2 28.4
08:55 1015 29.97 844 24.92 1.7 35 77 -1.9 28.5
09:00 1015 29.97 844 24.92 1.7 35.1 78 -1.8 28.8
09:05 1015 29.97 844 24.92 1.8 35.2 77 -1.8 28.8
09:10 1015 29.97 844 24.92 1.7 35.1 77 -1.8 28.7
09:15 1015 29.97 844 24.92 1.7 35 78 -1.8 28.8
09:20 1015 29.97 844 24.92 1.7 35 79 -1.7 29
09:25 1015 29.97 844 24.92 1.7 35.1 78 -1.8 28.8
09:30 1015 29.97 844 24.92 1.8 35.2 78 -1.7 28.9
09:35 1015 29.97 844 24.92 1.9 35.3 77 -1.7 29
09:40 1015 29.97 844 24.92 2 35.6 76 -1.8 28.8
09:45 1015 29.97 844 24.92 2.1 35.8 78 -1.4 29.4
09:50 1015 29.97 844 24.92 2.2 36 78 -1.3 29.7
09:55 1015 29.97 844 24.92 2.2 35.9 78 -1.3 29.7
10:00 1015 29.97 844 24.92 2.1 35.8 78 -1.3 29.6
10:05 1015 29.97 844 24.92 2 35.7 77 -1.5 29.3
10:10 1015 29.97 844 24.92 2 35.6 78 -1.3 29.6
10:15 1015 29.97 844 24.92 2.1 35.8 78 -1.2 29.8
10:20 1015 29.97 844 24.92 2 35.6 80 -1.2 29.9
10:25 1015 29.97 844 24.92 1.9 35.4 79 -1.3 29.6
10:30 1015 29.97 844 24.92 1.9 35.5 78 -1.4 29.4
10:35 1015 29.97 844 24.92 1.9 35.5 78 -1.4 29.4
10:40 1015 29.97 844 24.92 1.9 35.4 80 -1.2 29.9
10:45 1015 29.97 844 24.92 1.8 35.2 81 -1.1 30
10:50 1015 29.97 844 24.92 1.7 35.1 81 -1.2 29.9
10:55 1015 29.97 844 24.92 1.6 35 83 -1 30.2
11:00 1015 29.97 844 24.92 1.2 34.2 85 -0.9 30.3
11:05 1015 29.97 844 24.92 1 33.8 87 -0.9 30.4
11:10 1015 29.97 844 24.92 0.9 33.6 88 -0.8 30.5
11:15 1015 29.97 844 24.92 1.1 34 86 -1 30.2
11:20 1015 29.97 844 24.92 1.4 34.5 84 -1 30.2
11:25 1015 29.97 844 24.92 1.6 34.9 84 -0.9 30.4
11:30 1015 29.97 844 24.92 1.6 34.8 84 -0.8 30.5
11:35 1015 29.97 845 24.95 1.4 34.5 86 -0.7 30.8
11:40 1015 29.97 845 24.95 1.4 34.4 84 -1 30.1
11:45 1015 29.97 845 24.95 1.5 34.8 82 -1.2 29.9
11:50 1016 30 845 24.95 1.6 34.9 83 -1 30.2
11:55 1015 29.97 845 24.95 1.6 34.9 82 -1 30.1
12:00 1015 29.97 845 24.95 1.7 35.1 83 -0.9 30.3
12:05 1015 29.97 845 24.95 1.8 35.3 82 -1 30.2
12:10 1015 29.97 845 24.95 1.9 35.5 82 -0.8 30.6
12:15 1015 29.97 845 24.95 2 35.5 81 -0.9 30.4
12:20 1015 29.97 845 24.95 1.9 35.5 82 -0.8 30.6
12:25 1015 29.97 845 24.95 1.9 35.4 82 -0.8 30.5
12:30 1015 29.97 845 24.95 2 35.5 82 -0.7 30.7
12:35 1015 29.97 844 24.92 2.1 35.8 82 -0.6 30.8
12:40 1015 29.97 845 24.95 2.2 36 81 -0.7 30.7
12:45 1015 29.97 845 24.95 2.7 36.8 80 -0.4 31.2
12:50 1015 29.97 845 24.95 2.7 36.9 79 -0.6 30.8
12:55 1016 30 845 24.95 2.7 36.8 79 -0.7 30.8
13:00 1016 30 845 24.95 2.8 37.1 77 -0.8 30.5
13:05 1016 30 845 24.95 3 37.5 77 -0.6 31
13:10 1016 30 845 24.95 3 37.4 75 -0.9 30.3
13:15 1016 30 845 24.95 3 37.5 74 -1.1 30.1
13:20 1016 30 845 24.95 3.3 37.9 73 -1.1 30
13:25 1016 30 845 24.95 3.3 37.9 73 -1 30.1
13:30 1016 30 845 24.95 3.3 38 71 -1.4 29.5
13:35 1015 29.97 845 24.95 3.7 38.7 71 -1 30.2
13:40 1016 30 845 24.95 3.7 38.7 69 -1.5 29.3
13:45 1016 30 845 24.95 3.6 38.5 69 -1.5 29.3
13:50 1016 30 845 24.95 3.8 38.8 69 -1.3 29.6
13:55 1016 30 845 24.95 4 39.2 68 -1.3 29.7
14:00 1016 30 845 24.95 3.8 38.8 70 -1.2 29.8
14:05 1016 30 845 24.95 3.5 38.2 71 -1.2 29.8
14:10 1016 30 845 24.95 3.5 38.3 71 -1.3 29.7
14:15 1016 30 845 24.95 3.7 38.6 69 -1.4 29.4
14:20 1016 30 845 24.95 3.5 38.3 69 -1.7 28.9
14:25 1016 30 845 24.95 3.5 38.4 69 -1.5 29.3
14:30 1016 30 845 24.95 3.6 38.6 69 -1.5 29.3
14:35 1016 30 845 24.95 3.7 38.6 68 -1.6 29.1
14:40 1016 30 845 24.95 4.2 39.6 67 -1.4 29.4
14:45 1016 30 845 24.95 4.2 39.5 68 -1.1 30
14:50 1016 30 845 24.95 4 39.2 68 -1.3 29.6
14:55 1016 30 845 24.95 4.1 39.3 68 -1.2 29.9
15:00 1016 30 845 24.95 4 39.2 68 -1.3 29.6
15:05 1016 30 845 24.95 3.9 39 70 -1.1 30.1
15:10 1016 30 846 24.98 3.3 38 72 -1.3 29.7
15:15 1016 30 845 24.95 3.2 37.8 71 -1.6 29.1
15:20 1016 30 845 24.95 3.3 37.9 72 -1.3 29.6
15:25 1016 30 845 24.95 3.4 38.2 71 -1.3 29.6
15:30 1016 30 845 24.95 3.4 38.2 72 -1.2 29.8
15:35 1016 30 846 24.98 3.4 38.1 71 -1.3 29.6
15:40 1016 30 846 24.98 3.5 38.2 71 -1.2 29.8
15:45 1016 30 846 24.98 3.4 38.2 72 -1.1 29.9
15:50 1016 30 846 24.98 3.3 38 72 -1.1 29.9
15:55 1016 30 846 24.98 3.3 37.9 72 -1.3 29.7
16:00 1016 30 846 24.98 3.3 38 73 -1.1 30
16:05 1016 30 846 24.98 3.2 37.8 74 -1.1 30.1
16:10 1017 30.03 846 24.98 3 37.4 75 -0.9 30.3
16:15 1017 30.03 846 24.98 2.9 37.2 76 -1 30.3
16:20 1017 30.03 846 24.98 2.8 37.1 76 -1 30.2
16:25 1017 30.03 846 24.98 2.8 37 77 -0.9 30.3
16:30 1017 30.03 846 24.98 2.7 36.8 77 -0.9 30.4
16:35 1017 30.03 846 24.98 2.6 36.6 78 -1 30.3
16:40 1017 30.03 846 24.98 2.5 36.4 78 -0.9 30.3
16:45 1017 30.03 846 24.98 2.5 36.5 79 -0.9 30.4
16:50 1017 30.03 846 24.98 2.6 36.6 79 -0.8 30.6
16:55 1017 30.03 846 24.98 2.5 36.4 79 -0.8 30.6
17:00 1017 30.03 846 24.98 2.6 36.6 78 -0.9 30.4
17:05 1017 30.03 846 24.98 2.5 36.5 78 -0.9 30.4
17:10 1017 30.03 846 24.98 2.5 36.5 78 -0.9 30.4
17:15 1017 30.03 846 24.98 2.5 36.4 78 -0.9 30.4
17:20 1017 30.03 846 24.98 2.5 36.6 79 -0.8 30.5
17:25 1017 30.03 846 24.98 2.5 36.4 79 -0.8 30.6
17:30 1017 30.03 846 24.98 2.3 36.1 80 -0.8 30.5
17:35 1017 30.03 846 24.98 2.2 36 81 -0.8 30.6
17:40 1017 30.03 846 24.98 2.2 36 80 -0.8 30.5
17:45 1017 30.03 846 24.98 2.4 36.3 79 -0.9 30.5
17:50 1017 30.03 846 24.98 2.5 36.4 79 -0.8 30.6
17:55 1017 30.03 846 24.98 2.6 36.6 78 -0.8 30.6
18:00 1017 30.03 846 24.98 2.7 36.8 78 -0.8 30.6
18:05 1017 30.03 846 24.98 2.7 36.9 79 -0.6 30.9
18:10 1017 30.03 846 24.98 2.6 36.7 79 -0.7 30.8
18:15 1017 30.03 846 24.98 2.5 36.4 80 -0.7 30.7
18:20 1017 30.03 846 24.98 2.3 36.2 80 -0.8 30.6
18:25 1017 30.03 846 24.98 2.2 36 81 -0.7 30.8
18:30 1017 30.03 847 25.01 2.2 35.9 81 -0.8 30.6
18:35 1017 30.03 847 25.01 2.1 35.7 81 -0.9 30.4
18:40 1017 30.03 847 25.01 2 35.7 81 -0.9 30.4
18:45 1017 30.03 847 25.01 2 35.5 81 -0.9 30.3
18:50 1017 30.03 847 25.01 2 35.6 81 -0.9 30.4
18:55 1018 30.06 847 25.01 1.9 35.4 82 -0.8 30.5
19:00 1018 30.06 847 25.01 1.9 35.4 82 -0.9 30.3
19:05 1018 30.06 847 25.01 1.9 35.5 81 -0.9 30.3
19:10 1018 30.06 847 25.01 1.9 35.5 81 -1 30.3
19:15 1018 30.06 847 25.01 1.9 35.5 81 -1 30.3
19:20 1018 30.06 847 25.01 1.9 35.4 82 -0.9 30.3
19:25 1018 30.06 847 25.01 1.9 35.3 82 -1 30.3
19:30 1018 30.06 847 25.01 1.8 35.2 82 -0.9 30.3
19:35 1018 30.06 847 25.01 1.8 35.2 83 -0.9 30.4
19:40 1017 30.03 847 25.01 1.8 35.2 82 -0.9 30.3
19:45 1017 30.03 847 25.01 1.8 35.2 82 -1 30.2
19:50 1017 30.03 847 25.01 1.8 35.3 82 -1 30.2
19:55 1018 30.06 847 25.01 1.8 35.2 82 -1 30.2
20:00 1018 30.06 847 25.01 1.8 35.2 82 -1 30.3
20:05 1018 30.06 847 25.01 1.7 35.1 82 -1 30.3
20:10 1018 30.06 847 25.01 1.7 35 83 -1 30.3
20:15 1018 30.06 847 25.01 1.7 35 83 -0.9 30.3
20:20 1018 30.06 847 25.01 1.7 35 83 -1 30.3
20:25 1018 30.06 847 25.01 1.7 35 82 -1 30.2
20:30 1018 30.06 847 25.01 1.7 35 83 -1 30.3
20:35 1018 30.06 847 25.01 1.7 35 83 -0.9 30.3
20:40 1018 30.06 847 25.01 1.6 34.9 83 -0.9 30.3
20:45 1018 30.06 847 25.01 1.6 34.8 83 -1 30.2
20:50 1018 30.06 847 25.01 1.6 34.9 83 -1 30.2
20:55 1018 30.06 847 25.01 1.6 34.9 83 -1 30.2
21:00 1018 30.06 848 25.04 1.6 34.8 84 -0.9 30.3
21:05 1018 30.06 848 25.04 1.6 34.8 83 -1 30.2
21:10 1018 30.06 847 25.01 1.6 34.8 83 -1 30.2
21:15 1018 30.06 848 25.04 1.6 34.8 83 -1 30.2
21:20 1018 30.06 848 25.04 1.5 34.8 83 -1 30.2
21:25 1018 30.06 848 25.04 1.5 34.8 83 -1 30.2
21:30 1018 30.06 848 25.04 1.6 34.8 83 -1 30.2
21:35 1019 30.09 848 25.04 1.6 34.8 83 -1 30.2
21:40 1019 30.09 848 25.04 1.6 34.9 83 -1 30.3
21:45 1019 30.09 848 25.04 1.6 34.8 84 -0.9 30.3
21:50 1019 30.09 848 25.04 1.5 34.7 84 -0.9 30.3
21:55 1019 30.09 848 25.04 1.5 34.7 84 -0.9 30.3
22:00 1019 30.09 848 25.04 1.5 34.7 83 -1 30.1
22:05 1019 30.09 848 25.04 1.6 34.8 82 -1.1 30
22:10 1019 30.09 848 25.04 1.7 35 82 -1.1 30
22:15 1019 30.09 848 25.04 1.7 35.1 81 -1.2 29.9
22:20 1019 30.09 848 25.04 1.7 35.1 81 -1.1 30
22:25 1019 30.09 848 25.04 1.8 35.2 81 -1.2 29.8
22:30 1019 30.09 848 25.04 1.9 35.3 80 -1.3 29.7
22:35 1019 30.09 848 25.04 1.9 35.4 80 -1.2 29.8
22:40 1019 30.09 848 25.04 1.9 35.4 80 -1.2 29.8
22:45 1019 30.09 848 25.04 1.9 35.4 80 -1.2 29.8
22:50 1018 30.06 848 25.04 1.8 35.3 80 -1.2 29.8
22:55 1018 30.06 848 25.04 1.8 35.3 80 -1.2 29.8
23:00 1018 30.06 848 25.04 1.8 35.3 80 -1.2 29.8
23:05 1019 30.09 848 25.04 1.9 35.3 80 -1.2 29.8
23:10 1019 30.09 848 25.04 1.9 35.3 80 -1.2 29.9
23:15 1019 30.09 848 25.04 1.9 35.4 80 -1.2 29.9
23:20 1019 30.09 848 25.04 1.9 35.4 80 -1.2 29.8
23:25 1019 30.09 848 25.04 1.9 35.4 80 -1.2 29.9
23:30 1019 30.09 848 25.04 1.9 35.5 79 -1.3 29.7
23:35 1018 30.06 848 25.04 1.9 35.5 79 -1.3 29.7
23:40 1019 30.09 848 25.04 2 35.5 79 -1.3 29.6
23:45 1019 30.09 848 25.04 2 35.6 78 -1.4 29.5
23:50 1019 30.09 848 25.04 2 35.6 79 -1.3 29.6
23:55 1019 30.09 848 25.04 2 35.7 79 -1.2 29.8
24:00 1018 30.06 848 25.04 2 35.6 80 -1.1 30.1